createdAt,value
2019-05-22T00:00:35.062Z,33.90
2019-05-22T00:01:26.742Z,38.58
2019-05-22T00:02:20.662Z,32.33
2019-05-22T00:02:54.607Z,32.10
2019-05-22T00:03:33.621Z,31.07
2019-05-22T00:04:14.075Z,32.13
2019-05-22T00:04:53.238Z,33.65
2019-05-22T00:05:32.784Z,31.40
2019-05-22T00:06:06.342Z,30.80
2019-05-22T00:06:43.941Z,27.77
2019-05-22T00:07:17.846Z,27.77
2019-05-22T00:07:51.440Z,34.53
2019-05-22T00:08:26.468Z,26.25
2019-05-22T00:09:00.330Z,29.05
2019-05-22T00:09:39.941Z,34.48
2019-05-22T00:10:17.478Z,28.00
2019-05-22T00:10:53.257Z,24.02
2019-05-22T00:11:29.174Z,29.20
2019-05-22T00:12:03.804Z,27.20
2019-05-22T00:12:46.747Z,25.52
2019-05-22T00:13:14.706Z,27.30
2019-05-22T00:13:50.925Z,24.47
2019-05-22T00:14:26.254Z,29.32
2019-05-22T00:14:59.954Z,27.37
2019-05-22T00:15:38.394Z,28.98
2019-05-22T00:16:12.163Z,27.73
2019-05-22T00:16:46.935Z,26.68
2019-05-22T00:17:25.438Z,23.57
2019-05-22T00:18:01.269Z,24.77
2019-05-22T00:18:35.146Z,26.42
2019-05-22T00:19:10.219Z,25.25
2019-05-22T00:19:45.071Z,27.07
2019-05-22T00:20:21.926Z,24.92
2019-05-22T00:20:57.802Z,25.43
2019-05-22T00:21:31.662Z,22.93
2019-05-22T00:22:16.931Z,23.85
2019-05-22T00:22:52.080Z,25.05
2019-05-22T00:23:27.505Z,24.12
2019-05-22T00:24:03.120Z,24.50
2019-05-22T00:24:39.126Z,19.30
2019-05-22T00:25:18.077Z,26.07
2019-05-22T00:25:53.236Z,20.45
2019-05-22T00:26:29.057Z,22.27
2019-05-22T00:27:04.294Z,20.35
2019-05-22T00:27:38.392Z,23.45
2019-05-22T00:28:13.183Z,20.23
2019-05-22T00:28:47.318Z,24.47
2019-05-22T00:29:22.399Z,19.62
2019-05-22T00:29:57.775Z,20.02
2019-05-22T00:30:35.394Z,20.05
2019-05-22T00:31:09.087Z,21.23
2019-05-22T00:31:43.418Z,18.05
2019-05-22T00:32:18.178Z,18.37
2019-05-22T00:32:52.294Z,19.62
2019-05-22T00:33:26.288Z,20.77
2019-05-22T00:34:00.356Z,18.73
2019-05-22T00:34:35.650Z,18.45
2019-05-22T00:35:10.587Z,18.80
2019-05-22T00:35:45.491Z,21.57
2019-05-22T00:36:20.655Z,20.55
2019-05-22T00:36:55.283Z,16.05
2019-05-22T00:37:30.026Z,19.17
2019-05-22T00:38:05.950Z,16.70
2019-05-22T00:38:41.493Z,15.83
2019-05-22T00:39:16.636Z,17.25
2019-05-22T00:39:51.343Z,18.77
2019-05-22T00:40:28.028Z,17.98
2019-05-22T00:41:03.193Z,19.10
2019-05-22T00:41:38.338Z,16.80
2019-05-22T00:42:13.486Z,19.70
2019-05-22T00:43:03.458Z,19.07
2019-05-22T00:43:30.527Z,22.42
2019-05-22T00:44:05.892Z,15.95
2019-05-22T00:44:39.771Z,16.10
2019-05-22T00:45:14.850Z,16.55
2019-05-22T00:45:50.911Z,17.62
2019-05-22T00:46:25.691Z,19.98
2019-05-22T00:47:01.702Z,17.98
2019-05-22T00:47:36.846Z,17.77
2019-05-22T00:48:11.893Z,16.20
2019-05-22T00:48:48.156Z,21.97
2019-05-22T00:49:24.690Z,15.78
2019-05-22T00:49:59.844Z,18.15
2019-05-22T00:50:40.271Z,19.48
2019-05-22T00:51:29.548Z,19.00
2019-05-22T00:52:21.137Z,16.90
2019-05-22T00:53:03.162Z,17.65
2019-05-22T00:53:44.878Z,16.93
2019-05-22T00:54:24.139Z,17.27
2019-05-22T00:55:05.794Z,14.83
2019-05-22T00:55:51.654Z,13.28
2019-05-22T00:56:39.305Z,15.18
2019-05-22T00:57:27.542Z,12.88
2019-05-22T00:58:07.746Z,10.53
2019-05-22T00:58:49.614Z,13.30
2019-05-22T00:59:31.422Z,12.23
2019-05-22T01:00:21.369Z,13.22
2019-05-22T01:01:01.259Z,11.15
2019-05-22T01:01:40.706Z,10.15
2019-05-22T01:02:18.570Z,9.88
2019-05-22T01:02:54.758Z,12.30
2019-05-22T01:03:32.293Z,13.32
2019-05-22T01:04:08.114Z,10.63
2019-05-22T01:04:42.895Z,14.78
2019-05-22T01:05:19.869Z,9.20
2019-05-22T01:05:54.960Z,10.70
2019-05-22T01:06:30.040Z,12.43
2019-05-22T01:07:05.679Z,13.43
2019-05-22T01:07:40.510Z,8.43
2019-05-22T01:08:16.151Z,9.00
2019-05-22T01:08:51.369Z,9.33
2019-05-22T01:09:31.701Z,8.50
2019-05-22T01:10:07.271Z,9.78
2019-05-22T01:10:44.382Z,12.10
2019-05-22T01:11:20.940Z,8.05
2019-05-22T01:11:55.871Z,11.28
2019-05-22T01:12:30.921Z,10.63
2019-05-22T01:13:04.773Z,9.45
2019-05-22T01:13:38.554Z,9.80
2019-05-22T01:14:13.689Z,8.00
2019-05-22T01:14:49.712Z,8.55
2019-05-22T01:15:25.146Z,7.87
2019-05-22T01:15:59.783Z,8.68
2019-05-22T01:16:33.949Z,9.45
2019-05-22T01:17:10.030Z,8.98
2019-05-22T01:17:45.197Z,8.78
2019-05-22T01:18:18.743Z,7.78
2019-05-22T01:18:53.982Z,11.50
2019-05-22T01:19:30.302Z,9.35
2019-05-22T01:20:04.921Z,15.88
2019-05-22T01:20:40.634Z,7.50
2019-05-22T01:21:21.309Z,8.60
2019-05-22T01:21:56.386Z,8.85
2019-05-22T01:22:31.340Z,8.25
2019-05-22T01:23:06.474Z,7.67
2019-05-22T01:23:40.126Z,10.20
2019-05-22T01:24:15.047Z,11.97
2019-05-22T01:24:51.241Z,10.90
2019-05-22T01:25:26.694Z,10.43
2019-05-22T01:26:01.441Z,11.30
2019-05-22T01:26:36.316Z,11.12
2019-05-22T01:27:55.514Z,15.75
2019-05-22T01:28:30.469Z,11.10
2019-05-22T01:29:06.105Z,16.80
2019-05-22T01:29:39.890Z,12.10
2019-05-22T01:30:23.511Z,11.68
2019-05-22T01:31:28.586Z,11.90
2019-05-22T01:32:45.085Z,13.93
2019-05-22T01:33:21.858Z,12.35
2019-05-22T01:34:02.058Z,11.05
2019-05-22T01:34:36.137Z,14.25
2019-05-22T01:35:10.511Z,13.28
2019-05-22T01:35:52.841Z,12.93
2019-05-22T01:36:30.172Z,14.40
2019-05-22T01:37:08.414Z,11.50
2019-05-22T01:37:44.626Z,13.22
2019-05-22T01:38:18.906Z,12.50
2019-05-22T01:38:56.162Z,13.62
2019-05-22T01:39:39.244Z,11.90
2019-05-22T01:40:19.774Z,13.20
2019-05-22T01:40:57.285Z,11.80
2019-05-22T01:41:33.327Z,16.35
2019-05-22T01:42:10.671Z,12.75
2019-05-22T01:42:49.518Z,11.40
2019-05-22T01:43:26.394Z,12.03
2019-05-22T01:44:03.075Z,13.78
2019-05-22T01:44:36.929Z,13.18
2019-05-22T01:45:12.390Z,15.35
2019-05-22T01:45:54.097Z,11.60
2019-05-22T01:46:30.699Z,11.68
2019-05-22T01:47:08.042Z,9.10
2019-05-22T01:47:48.795Z,11.85
2019-05-22T01:48:25.584Z,12.53
2019-05-22T01:49:03.066Z,11.93
2019-05-22T01:49:38.717Z,9.05
2019-05-22T01:50:15.803Z,10.00
2019-05-22T01:50:51.258Z,11.60
2019-05-22T01:51:25.606Z,10.05
2019-05-22T01:51:59.577Z,10.08
2019-05-22T01:52:34.050Z,8.75
2019-05-22T01:53:08.651Z,9.83
2019-05-22T01:53:43.687Z,9.63
2019-05-22T01:54:19.292Z,11.10
2019-05-22T01:54:54.711Z,12.37
2019-05-22T01:55:30.395Z,10.65
2019-05-22T01:56:08.022Z,10.50
2019-05-22T01:56:43.007Z,12.07
2019-05-22T01:57:18.377Z,14.13
2019-05-22T01:57:53.342Z,9.95
2019-05-22T01:58:28.394Z,10.82
2019-05-22T01:59:02.689Z,11.30
2019-05-22T01:59:37.032Z,13.43
2019-05-22T02:00:11.473Z,13.05
2019-05-22T02:00:45.272Z,13.75
2019-05-22T02:01:20.075Z,10.85
2019-05-22T02:01:54.773Z,10.93
2019-05-22T02:02:29.914Z,12.73
2019-05-22T02:03:03.867Z,12.43
2019-05-22T02:03:40.542Z,12.05
2019-05-22T02:04:14.978Z,14.63
2019-05-22T02:04:49.090Z,10.90
2019-05-22T02:05:24.709Z,11.20
2019-05-22T02:05:58.542Z,11.20
2019-05-22T02:06:34.475Z,15.58
2019-05-22T02:07:09.770Z,14.25
2019-05-22T02:07:43.426Z,11.43
2019-05-22T02:08:19.194Z,12.80
2019-05-22T02:09:02.508Z,11.25
2019-05-22T02:09:37.702Z,12.35
2019-05-22T02:10:15.102Z,11.70
2019-05-22T02:10:49.455Z,10.98
2019-05-22T02:11:24.470Z,12.13
2019-05-22T02:12:03.029Z,10.30
2019-05-22T02:12:44.570Z,10.63
2019-05-22T02:13:21.483Z,11.63
2019-05-22T02:14:04.309Z,13.85
2019-05-22T02:14:41.619Z,10.85
2019-05-22T02:15:15.355Z,9.83
2019-05-22T02:15:49.222Z,12.25
2019-05-22T02:16:24.304Z,12.90
2019-05-22T02:16:58.010Z,10.72
2019-05-22T02:17:34.009Z,10.98
2019-05-22T02:18:11.063Z,10.30
2019-05-22T02:18:46.611Z,11.83
2019-05-22T02:19:20.858Z,13.10
2019-05-22T02:19:54.831Z,10.88
2019-05-22T02:20:29.474Z,10.08
2019-05-22T02:21:04.729Z,20.68
2019-05-22T02:21:40.592Z,12.90
2019-05-22T02:22:15.173Z,12.10
2019-05-22T02:22:50.670Z,13.60
2019-05-22T02:23:25.223Z,12.53
2019-05-22T02:23:59.306Z,14.63
2019-05-22T02:24:34.247Z,12.78
2019-05-22T02:25:08.618Z,10.82
2019-05-22T02:25:42.408Z,12.95
2019-05-22T02:26:16.841Z,11.53
2019-05-22T02:26:51.214Z,13.70
2019-05-22T02:27:25.116Z,12.18
2019-05-22T02:27:59.190Z,13.78
2019-05-22T02:28:33.359Z,12.25
2019-05-22T02:29:08.559Z,15.53
2019-05-22T02:29:43.011Z,12.13
2019-05-22T02:30:18.870Z,13.43
2019-05-22T02:30:54.123Z,13.00
2019-05-22T02:31:29.283Z,10.98
2019-05-22T02:32:04.628Z,11.00
2019-05-22T02:32:38.831Z,12.20
2019-05-22T02:33:14.198Z,13.75
2019-05-22T02:34:04.881Z,13.62
2019-05-22T02:34:38.643Z,14.23
2019-05-22T02:35:13.900Z,11.55
2019-05-22T02:35:47.772Z,14.25
2019-05-22T02:36:21.533Z,14.25
2019-05-22T02:36:56.367Z,10.90
2019-05-22T02:37:30.827Z,13.18
2019-05-22T02:38:06.340Z,11.25
2019-05-22T02:38:40.343Z,14.58
2019-05-22T02:39:26.679Z,13.28
2019-05-22T02:40:01.258Z,12.47
2019-05-22T02:40:37.536Z,16.12
2019-05-22T02:41:14.357Z,11.97
2019-05-22T02:41:50.256Z,11.08
2019-05-22T02:42:26.544Z,13.48
2019-05-22T02:43:00.800Z,13.30
2019-05-22T02:43:36.005Z,12.53
2019-05-22T02:44:10.378Z,11.78
2019-05-22T02:44:45.415Z,11.97
2019-05-22T02:45:20.690Z,13.68
2019-05-22T02:45:55.213Z,12.03
2019-05-22T02:46:30.076Z,11.70
2019-05-22T02:47:17.885Z,12.05
2019-05-22T02:47:40.881Z,15.10
2019-05-22T02:48:16.450Z,13.70
2019-05-22T02:48:51.609Z,13.38
2019-05-22T02:49:26.586Z,11.57
2019-05-22T02:50:01.853Z,14.95
2019-05-22T02:50:37.376Z,16.35
2019-05-22T02:51:11.318Z,14.73
2019-05-22T02:51:45.578Z,13.32
2019-05-22T02:52:20.158Z,16.57
2019-05-22T02:52:54.522Z,14.98
2019-05-22T02:53:28.705Z,15.25
2019-05-22T02:54:03.771Z,15.95
2019-05-22T02:54:38.626Z,16.45
2019-05-22T02:55:12.565Z,17.12
2019-05-22T02:55:46.523Z,14.73
2019-05-22T02:56:21.151Z,14.73
2019-05-22T02:56:55.294Z,17.40
2019-05-22T02:57:31.370Z,18.02
2019-05-22T02:58:05.258Z,15.95
2019-05-22T02:58:39.594Z,16.30
2019-05-22T02:59:14.927Z,18.57
2019-05-22T02:59:49.028Z,15.05
2019-05-22T03:00:24.422Z,15.13
2019-05-22T03:01:00.153Z,17.32
2019-05-22T03:01:34.195Z,17.25
2019-05-22T03:02:08.634Z,17.55
2019-05-22T03:02:47.259Z,16.12
2019-05-22T03:03:21.343Z,13.40
2019-05-22T03:03:55.277Z,14.07
2019-05-22T03:04:31.927Z,17.48
2019-05-22T03:05:07.521Z,17.27
2019-05-22T03:05:41.662Z,14.83
2019-05-22T03:06:15.234Z,15.32
2019-05-22T03:06:50.452Z,12.95
2019-05-22T03:07:24.830Z,17.55
2019-05-22T03:07:59.103Z,17.15
2019-05-22T03:08:36.200Z,14.50
2019-05-22T03:09:17.985Z,13.65
2019-05-22T03:09:53.233Z,14.95
2019-05-22T03:10:28.667Z,14.00
2019-05-22T03:11:03.050Z,12.50
2019-05-22T03:11:37.639Z,11.93
2019-05-22T03:12:13.378Z,12.68
2019-05-22T03:12:49.110Z,15.95
2019-05-22T03:13:24.460Z,15.03
2019-05-22T03:14:01.861Z,14.87
2019-05-22T03:14:37.776Z,15.20
2019-05-22T03:15:13.981Z,14.68
2019-05-22T03:15:47.964Z,18.02
2019-05-22T03:16:23.991Z,13.25
2019-05-22T03:17:00.358Z,15.28
2019-05-22T03:17:35.503Z,13.55
2019-05-22T03:18:10.783Z,18.07
2019-05-22T03:18:44.540Z,15.75
2019-05-22T03:19:20.809Z,15.35
2019-05-22T03:19:54.937Z,16.73
2019-05-22T03:20:29.843Z,12.63
2019-05-22T03:21:03.699Z,15.43
2019-05-22T03:21:37.572Z,15.75
2019-05-22T03:22:23.616Z,12.90
2019-05-22T03:23:01.358Z,16.65
2019-05-22T03:23:36.684Z,15.95
2019-05-22T03:24:11.766Z,12.70
2019-05-22T03:24:46.707Z,19.62
2019-05-22T03:25:22.383Z,16.67
2019-05-22T03:25:56.186Z,13.08
2019-05-22T03:26:38.772Z,11.95
2019-05-22T03:27:13.112Z,15.05
2019-05-22T03:27:49.269Z,13.03
2019-05-22T03:28:23.659Z,14.83
2019-05-22T03:28:58.202Z,13.85
2019-05-22T03:29:37.794Z,13.98
2019-05-22T03:30:15.310Z,15.32
2019-05-22T03:30:50.754Z,10.35
2019-05-22T03:31:24.790Z,19.65
2019-05-22T03:31:58.929Z,16.73
2019-05-22T03:32:33.196Z,14.53
2019-05-22T03:33:08.158Z,16.67
2019-05-22T03:33:42.494Z,16.27
2019-05-22T03:34:17.781Z,14.85
2019-05-22T03:34:52.998Z,16.40
2019-05-22T03:35:31.023Z,14.55
2019-05-22T03:36:07.773Z,15.93
2019-05-22T03:36:41.797Z,14.80
2019-05-22T03:37:15.747Z,14.30
2019-05-22T03:37:50.995Z,18.45
2019-05-22T03:38:24.509Z,15.55
2019-05-22T03:38:59.120Z,18.87
2019-05-22T03:39:33.578Z,16.52
2019-05-22T03:40:08.482Z,15.13
2019-05-22T03:40:42.666Z,16.82
2019-05-22T03:41:18.510Z,15.68
2019-05-22T03:41:53.284Z,16.40
2019-05-22T03:42:27.535Z,15.88
2019-05-22T03:43:02.518Z,15.53
2019-05-22T03:43:36.343Z,17.75
2019-05-22T03:44:12.010Z,17.05
2019-05-22T03:44:46.445Z,15.13
2019-05-22T03:45:21.595Z,13.53
2019-05-22T03:45:57.446Z,15.60
2019-05-22T03:46:34.764Z,16.67
2019-05-22T03:47:08.434Z,15.08
2019-05-22T03:47:42.567Z,15.15
2019-05-22T03:48:16.428Z,18.00
2019-05-22T03:48:49.934Z,15.70
2019-05-22T03:49:30.821Z,17.60
2019-05-22T03:50:01.116Z,17.10
2019-05-22T03:50:34.761Z,20.43
2019-05-22T03:51:12.422Z,19.48
2019-05-22T03:51:47.986Z,18.10
2019-05-22T03:52:21.547Z,18.67
2019-05-22T03:52:56.904Z,15.55
2019-05-22T03:53:30.757Z,12.68
2019-05-22T03:54:05.271Z,15.80
2019-05-22T03:54:39.311Z,18.07
2019-05-22T03:55:14.299Z,17.42
2019-05-22T03:55:49.618Z,17.32
2019-05-22T03:56:24.507Z,15.40
2019-05-22T03:56:58.942Z,16.90
2019-05-22T03:57:32.505Z,15.90
2019-05-22T03:58:06.450Z,19.65
2019-05-22T03:58:41.277Z,14.85
2019-05-22T03:59:34.443Z,13.30
2019-05-22T04:00:10.495Z,18.07
2019-05-22T04:00:45.464Z,17.70
2019-05-22T04:01:20.957Z,15.08
2019-05-22T04:01:55.269Z,15.85
2019-05-22T04:02:29.202Z,17.12
2019-05-22T04:03:03.682Z,17.60
2019-05-22T04:03:38.930Z,14.28
2019-05-22T04:04:15.594Z,16.20
2019-05-22T04:04:49.767Z,16.57
2019-05-22T04:05:24.734Z,17.30
2019-05-22T04:06:00.467Z,17.32
2019-05-22T04:06:35.382Z,16.45
2019-05-22T04:07:12.337Z,18.92
2019-05-22T04:07:48.091Z,12.58
2019-05-22T04:08:23.408Z,16.52
2019-05-22T04:08:58.760Z,18.85
2019-05-22T04:09:33.511Z,20.55
2019-05-22T04:10:08.107Z,18.90
2019-05-22T04:10:49.397Z,19.20
2019-05-22T04:11:25.858Z,17.52
2019-05-22T04:11:59.934Z,18.67
2019-05-22T04:12:33.917Z,18.27
2019-05-22T04:13:08.274Z,16.67
2019-05-22T04:13:42.153Z,22.02
2019-05-22T04:14:16.153Z,19.82
2019-05-22T04:14:50.086Z,16.00
2019-05-22T04:15:24.475Z,18.27
2019-05-22T04:15:58.862Z,20.77
2019-05-22T04:16:33.510Z,18.95
2019-05-22T04:17:09.947Z,18.52
2019-05-22T04:17:44.485Z,19.02
2019-05-22T04:18:22.779Z,20.50
2019-05-22T04:18:55.719Z,18.52
2019-05-22T04:19:47.404Z,16.85
2019-05-22T04:20:24.955Z,19.20
2019-05-22T04:21:00.461Z,19.07
2019-05-22T04:21:34.743Z,21.75
2019-05-22T04:22:09.709Z,19.85
2019-05-22T04:22:43.642Z,22.32
2019-05-22T04:23:17.638Z,26.02
2019-05-22T04:23:51.594Z,19.07
2019-05-22T04:24:25.583Z,20.57
2019-05-22T04:25:00.515Z,20.65
2019-05-22T04:25:34.394Z,19.05
2019-05-22T04:26:11.427Z,22.77
2019-05-22T04:26:51.521Z,21.40
2019-05-22T04:27:25.861Z,28.15
2019-05-22T04:28:00.143Z,22.90
2019-05-22T04:28:35.977Z,24.45
2019-05-22T04:29:09.905Z,26.12
2019-05-22T04:29:44.078Z,24.77
2019-05-22T04:30:18.628Z,24.98
2019-05-22T04:30:53.076Z,27.50
2019-05-22T04:31:34.259Z,24.55
2019-05-22T04:32:17.199Z,24.43
2019-05-22T04:32:51.146Z,21.65
2019-05-22T04:33:25.199Z,26.75
2019-05-22T04:33:59.389Z,24.25
2019-05-22T04:34:33.747Z,27.32
2019-05-22T04:35:10.884Z,28.10
2019-05-22T04:35:44.854Z,26.05
2019-05-22T04:36:20.313Z,30.17
2019-05-22T04:36:55.108Z,26.77
2019-05-22T04:37:31.266Z,30.97
2019-05-22T04:38:06.149Z,30.82
2019-05-22T04:38:39.958Z,26.05
2019-05-22T04:39:18.875Z,31.30
2019-05-22T04:39:54.739Z,27.58
2019-05-22T04:40:48.763Z,28.15
2019-05-22T04:41:23.035Z,28.52
2019-05-22T04:41:59.334Z,23.57
2019-05-22T04:42:32.839Z,24.98
2019-05-22T04:43:07.606Z,28.02
2019-05-22T04:43:41.671Z,25.05
2019-05-22T04:44:15.277Z,21.77
2019-05-22T04:45:18.311Z,27.60
2019-05-22T04:45:52.304Z,28.32
2019-05-22T04:46:25.855Z,24.37
2019-05-22T04:47:00.585Z,26.23
2019-05-22T04:47:35.376Z,27.32
2019-05-22T04:48:09.557Z,28.95
2019-05-22T04:48:46.181Z,27.80
2019-05-22T04:49:19.703Z,29.45
2019-05-22T04:50:06.896Z,28.60
2019-05-22T04:50:30.170Z,27.95
2019-05-22T04:51:24.294Z,26.97
2019-05-22T04:51:58.293Z,26.07
2019-05-22T04:52:32.194Z,25.43
2019-05-22T04:53:06.314Z,24.23
2019-05-22T04:53:39.907Z,26.42
2019-05-22T04:54:13.769Z,32.10
2019-05-22T04:54:52.198Z,28.15
2019-05-22T04:55:24.164Z,25.35
2019-05-22T04:55:58.426Z,26.50
2019-05-22T04:56:32.516Z,26.97
2019-05-22T04:57:07.598Z,27.27
2019-05-22T04:57:43.641Z,25.50
2019-05-22T04:58:22.292Z,27.73
2019-05-22T04:58:56.710Z,35.68
2019-05-22T04:59:30.870Z,28.90
2019-05-22T05:00:05.298Z,29.25
2019-05-22T05:00:39.753Z,28.85
2019-05-22T05:01:14.343Z,28.15
2019-05-22T05:01:48.480Z,28.12
2019-05-22T05:02:22.001Z,25.10
2019-05-22T05:02:56.334Z,25.60
2019-05-22T05:03:30.311Z,28.62
2019-05-22T05:04:03.823Z,29.05
2019-05-22T05:04:37.763Z,29.40
2019-05-22T05:05:12.809Z,22.50
2019-05-22T05:05:49.605Z,25.25
2019-05-22T05:06:25.919Z,19.45
2019-05-22T05:06:59.781Z,25.52
2019-05-22T05:07:34.578Z,23.67
2019-05-22T05:08:08.807Z,24.23
2019-05-22T05:08:42.667Z,27.40
2019-05-22T05:09:16.532Z,23.92
2019-05-22T05:09:51.070Z,23.12
2019-05-22T05:10:25.133Z,24.90
2019-05-22T05:11:02.081Z,27.58
2019-05-22T05:11:36.588Z,28.65
2019-05-22T05:12:11.034Z,27.50
2019-05-22T05:12:45.031Z,28.87
2019-05-22T05:13:19.127Z,23.85
2019-05-22T05:13:52.985Z,24.67
2019-05-22T05:14:26.477Z,25.65
2019-05-22T05:15:01.456Z,24.87
2019-05-22T05:15:37.234Z,23.85
2019-05-22T05:16:10.587Z,24.07
2019-05-22T05:16:44.855Z,26.05
2019-05-22T05:17:19.034Z,24.80
2019-05-22T05:17:52.529Z,23.83
2019-05-22T05:18:26.930Z,26.12
2019-05-22T05:19:01.269Z,29.05
2019-05-22T05:19:34.895Z,26.23
2019-05-22T05:20:21.578Z,24.80
2019-05-22T05:20:44.973Z,28.30
2019-05-22T05:21:18.493Z,23.85
2019-05-22T05:21:52.562Z,29.40
2019-05-22T05:22:31.504Z,31.93
2019-05-22T05:23:05.004Z,26.73
2019-05-22T05:23:38.865Z,27.42
2019-05-22T05:24:12.738Z,28.60
2019-05-22T05:24:46.515Z,24.87
2019-05-22T05:25:20.672Z,23.85
2019-05-22T05:25:54.579Z,25.50
2019-05-22T05:26:30.767Z,31.35
2019-05-22T05:27:05.337Z,25.37
2019-05-22T05:27:39.636Z,27.85
2019-05-22T05:28:13.894Z,31.35
2019-05-22T05:28:47.762Z,33.40
2019-05-22T05:29:25.952Z,25.23
2019-05-22T05:29:59.440Z,29.05
2019-05-22T05:30:33.389Z,24.45
2019-05-22T05:31:07.565Z,25.10
2019-05-22T05:31:41.139Z,24.12
2019-05-22T05:32:15.602Z,25.35
2019-05-22T05:32:50.670Z,23.10
2019-05-22T05:33:24.991Z,21.17
2019-05-22T05:34:05.649Z,20.72
2019-05-22T05:34:46.460Z,24.87
2019-05-22T05:35:20.526Z,22.82
2019-05-22T05:35:55.151Z,26.60
2019-05-22T05:36:29.041Z,29.63
2019-05-22T05:37:23.850Z,22.70
2019-05-22T05:37:58.247Z,23.52
2019-05-22T05:38:34.437Z,27.13
2019-05-22T05:39:12.420Z,28.73
2019-05-22T05:40:05.948Z,24.20
2019-05-22T05:40:41.817Z,23.12
2019-05-22T05:41:15.605Z,23.90
2019-05-22T05:41:49.601Z,25.95
2019-05-22T05:42:23.754Z,29.48
2019-05-22T05:42:58.316Z,29.55
2019-05-22T05:43:32.642Z,26.85
2019-05-22T05:44:06.689Z,29.30
2019-05-22T05:44:40.681Z,29.98
2019-05-22T05:45:14.651Z,27.77
2019-05-22T05:45:50.509Z,28.70
2019-05-22T05:46:24.085Z,25.23
2019-05-22T05:46:58.263Z,28.85
2019-05-22T05:47:32.464Z,26.52
2019-05-22T05:48:06.952Z,26.85
2019-05-22T05:48:41.098Z,28.92
2019-05-22T05:49:15.290Z,26.48
2019-05-22T05:49:49.869Z,27.60
2019-05-22T05:50:38.272Z,28.55
2019-05-22T05:51:31.752Z,22.58
2019-05-22T05:52:07.437Z,26.48
2019-05-22T05:52:42.161Z,26.17
2019-05-22T05:53:19.007Z,25.23
2019-05-22T05:54:05.513Z,21.40
2019-05-22T05:54:39.370Z,22.10
2019-05-22T05:55:13.357Z,18.77
2019-05-22T05:56:05.430Z,19.17
2019-05-22T05:56:41.258Z,19.12
2019-05-22T05:57:43.098Z,20.23
2019-05-22T05:58:25.626Z,25.30
2019-05-22T05:59:00.728Z,16.65
2019-05-22T05:59:34.339Z,20.27
2019-05-22T06:00:10.715Z,23.85
2019-05-22T06:00:51.637Z,21.37
2019-05-22T06:01:29.466Z,22.32
2019-05-22T06:02:04.213Z,22.13
2019-05-22T06:02:38.162Z,20.25
2019-05-22T06:03:32.251Z,23.40
2019-05-22T06:04:06.507Z,20.90
2019-05-22T06:04:40.687Z,29.37
2019-05-22T06:05:14.388Z,23.95
2019-05-22T06:05:49.028Z,21.27
2019-05-22T06:06:54.203Z,21.25
2019-05-22T06:07:27.782Z,20.25
2019-05-22T06:08:01.786Z,24.05
2019-05-22T06:08:38.539Z,20.40
2019-05-22T06:09:14.526Z,20.35
2019-05-22T06:09:51.990Z,21.73
2019-05-22T06:10:34.774Z,19.07
2019-05-22T06:11:26.640Z,22.82
2019-05-22T06:12:05.476Z,25.97
2019-05-22T06:12:37.499Z,20.37
2019-05-22T06:13:11.367Z,18.23
2019-05-22T06:13:45.272Z,21.68
2019-05-22T06:14:20.118Z,21.33
2019-05-22T06:14:55.254Z,19.50
2019-05-22T06:15:46.630Z,21.68
2019-05-22T06:16:36.525Z,22.90
2019-05-22T06:17:33.097Z,17.23
2019-05-22T06:18:38.291Z,22.30
2019-05-22T06:19:12.686Z,22.90
2019-05-22T06:19:48.151Z,21.00
2019-05-22T06:20:23.793Z,14.13
2019-05-22T06:21:04.005Z,17.10
2019-05-22T06:21:34.108Z,17.73
2019-05-22T06:22:09.339Z,17.32
2019-05-22T06:22:44.039Z,18.87
2019-05-22T06:23:44.418Z,19.77
2019-05-22T06:24:27.360Z,19.87
2019-05-22T06:25:04.581Z,21.60
2019-05-22T06:25:39.586Z,20.30
2019-05-22T06:26:31.617Z,21.90
2019-05-22T06:27:09.091Z,19.62
2019-05-22T06:27:49.543Z,16.70
2019-05-22T06:28:23.719Z,17.37
2019-05-22T06:28:58.708Z,18.30
2019-05-22T06:29:34.761Z,17.87
2019-05-22T06:30:10.557Z,17.52
2019-05-22T06:30:47.849Z,14.93
2019-05-22T06:31:24.954Z,18.42
2019-05-22T06:32:17.320Z,18.45
2019-05-22T06:33:18.970Z,18.40
2019-05-22T06:33:52.936Z,15.25
2019-05-22T06:34:26.382Z,17.35
2019-05-22T06:35:00.280Z,17.75
2019-05-22T06:35:36.590Z,15.18
2019-05-22T06:36:18.030Z,17.27
2019-05-22T06:36:52.198Z,19.65
2019-05-22T06:37:31.289Z,15.58
2019-05-22T06:38:30.258Z,18.87
2019-05-22T06:39:07.392Z,16.95
2019-05-22T06:39:41.916Z,14.75
2019-05-22T06:40:17.411Z,14.40
2019-05-22T06:40:51.376Z,14.98
2019-05-22T06:41:29.057Z,20.45
2019-05-22T06:42:02.626Z,16.05
2019-05-22T06:42:36.489Z,17.98
2019-05-22T06:43:29.593Z,16.50
2019-05-22T06:44:30.553Z,21.90
2019-05-22T06:45:05.398Z,15.90
2019-05-22T06:45:39.610Z,16.60
2019-05-22T06:46:13.736Z,16.30
2019-05-22T06:46:49.034Z,14.63
2019-05-22T06:47:23.516Z,12.37
2019-05-22T06:47:56.990Z,17.98
2019-05-22T06:48:31.175Z,13.62
2019-05-22T06:49:06.567Z,11.18
2019-05-22T06:49:41.579Z,15.30
2019-05-22T06:50:15.676Z,13.53
2019-05-22T06:50:49.660Z,11.08
2019-05-22T06:51:23.309Z,11.65
2019-05-22T06:51:57.243Z,12.50
2019-05-22T06:52:31.096Z,9.20
2019-05-22T06:53:09.860Z,11.55
2019-05-22T06:53:41.083Z,10.80
2019-05-22T06:54:15.031Z,12.73
2019-05-22T06:54:49.509Z,12.82
2019-05-22T06:55:23.694Z,8.68
2019-05-22T06:55:57.631Z,10.63
2019-05-22T06:56:31.414Z,12.15
2019-05-22T06:57:08.285Z,13.50
2019-05-22T06:57:42.162Z,11.90
2019-05-22T06:58:15.665Z,10.38
2019-05-22T06:58:49.602Z,8.58
2019-05-22T06:59:23.453Z,12.93
2019-05-22T07:00:12.340Z,12.00
2019-05-22T07:00:33.082Z,12.20
2019-05-22T07:01:07.866Z,15.68
2019-05-22T07:01:41.407Z,11.08
2019-05-22T07:02:17.149Z,11.28
2019-05-22T07:02:51.217Z,11.38
2019-05-22T07:03:25.242Z,12.78
2019-05-22T07:03:59.538Z,10.70
2019-05-22T07:04:34.294Z,9.80
2019-05-22T07:05:09.034Z,10.75
2019-05-22T07:05:42.978Z,11.85
2019-05-22T07:06:16.842Z,11.75
2019-05-22T07:06:50.434Z,11.43
2019-05-22T07:07:28.082Z,9.20
2019-05-22T07:08:02.823Z,12.43
2019-05-22T07:08:37.278Z,13.75
2019-05-22T07:09:12.149Z,11.80
2019-05-22T07:09:46.693Z,10.00
2019-05-22T07:10:21.030Z,11.35
2019-05-22T07:10:55.470Z,12.58
2019-05-22T07:11:30.437Z,13.80
2019-05-22T07:12:05.211Z,14.00
2019-05-22T07:12:58.506Z,12.37
2019-05-22T07:13:33.481Z,13.00
2019-05-22T07:14:27.162Z,11.03
2019-05-22T07:15:20.894Z,10.18
2019-05-22T07:15:55.809Z,11.53
2019-05-22T07:16:30.549Z,14.68
2019-05-22T07:17:05.930Z,13.10
2019-05-22T07:17:40.070Z,12.93
2019-05-22T07:18:14.547Z,12.15
2019-05-22T07:18:48.998Z,11.43
2019-05-22T07:19:23.347Z,11.28
2019-05-22T07:19:58.140Z,14.45
2019-05-22T07:20:36.042Z,16.70
2019-05-22T07:21:10.030Z,14.83
2019-05-22T07:21:43.557Z,15.25
2019-05-22T07:22:17.431Z,13.32
2019-05-22T07:22:51.286Z,12.93
2019-05-22T07:23:32.799Z,18.37
2019-05-22T07:24:07.003Z,19.52
2019-05-22T07:24:40.847Z,13.90
2019-05-22T07:25:14.626Z,14.78
2019-05-22T07:25:50.142Z,14.13
2019-05-22T07:26:24.138Z,16.25
2019-05-22T07:26:59.525Z,12.98
2019-05-22T07:27:33.387Z,14.45
2019-05-22T07:28:08.117Z,14.95
2019-05-22T07:28:42.088Z,14.65
2019-05-22T07:29:17.102Z,12.47
2019-05-22T07:29:51.003Z,13.00
2019-05-22T07:30:24.609Z,17.05
2019-05-22T07:31:17.597Z,15.63
2019-05-22T07:31:52.351Z,12.60
2019-05-22T07:32:30.229Z,14.80
2019-05-22T07:33:22.402Z,13.83
2019-05-22T07:33:56.274Z,14.73
2019-05-22T07:34:49.018Z,15.85
2019-05-22T07:36:04.547Z,15.25
2019-05-22T07:36:20.601Z,13.48
2019-05-22T07:37:13.209Z,14.35
2019-05-22T07:37:47.575Z,14.05
2019-05-22T07:38:40.728Z,12.23
2019-05-22T07:39:14.263Z,11.57
2019-05-22T07:39:49.708Z,13.78
2019-05-22T07:40:24.026Z,12.98
2019-05-22T07:40:57.985Z,17.95
2019-05-22T07:41:51.151Z,13.18
2019-05-22T07:43:10.452Z,14.38
2019-05-22T07:43:44.338Z,11.93
2019-05-22T07:44:19.623Z,14.93
2019-05-22T07:44:54.496Z,17.20
2019-05-22T07:45:29.650Z,13.72
2019-05-22T07:46:04.028Z,11.65
2019-05-22T07:46:39.456Z,13.00
2019-05-22T07:47:16.202Z,11.53
2019-05-22T07:48:09.648Z,13.85
2019-05-22T07:48:44.322Z,16.67
2019-05-22T07:49:18.493Z,18.50
2019-05-22T07:50:11.518Z,12.82
2019-05-22T07:50:49.514Z,12.05
2019-05-22T07:51:24.817Z,11.95
2019-05-22T07:52:01.721Z,12.80
2019-05-22T07:52:35.173Z,12.03
2019-05-22T07:53:28.213Z,15.28
2019-05-22T07:54:02.110Z,12.15